PAA2522 KBUF-KHYA
Flight info
| Callsign | PAA2522 |
|---|---|
| Flight time | N/A |
| Altitude | 19000 |
| Route | JOSSY Q935 BOS V141 DUNKK |
| Aircraft | DC6/M-SDE1FGHIRWXY/S |
Departure
| Time | 2026-05-05 03:22 |
|---|---|
| Airport | Buffalo Niagara International Airport (KBUF) |
Arrival
| Time | N/A |
|---|---|
| Airport | Cape Cod Gateway Airport (KHYA) |
| Time | Latitude | Longitude | Altitude | Speed | Heading |
|---|---|---|---|---|---|
| 2026-05-05 02:58 | 42.93606 | -78.73099 | 709 ft | 0 kts | 130° |
| 2026-05-05 03:05 | 42.93615 | -78.73114 | 702 ft | 3 kts | 130° |
| 2026-05-05 03:05 | 42.93628 | -78.73134 | 704 ft | 3 kts | 130° |
| 2026-05-05 03:06 | 42.93637 | -78.73148 | 700 ft | 0 kts | 130° |
| 2026-05-05 03:13 | 42.93630 | -78.73122 | 700 ft | 6 kts | 85° |
| 2026-05-05 03:13 | 42.93680 | -78.73092 | 712 ft | 13 kts | 9° |
| 2026-05-05 03:13 | 42.93803 | -78.73064 | 714 ft | 23 kts | 9° |
| 2026-05-05 03:14 | 42.93934 | -78.72949 | 717 ft | 26 kts | 60° |
| 2026-05-05 03:14 | 42.94068 | -78.72725 | 718 ft | 36 kts | 44° |
| 2026-05-05 03:14 | 42.94262 | -78.72464 | 723 ft | 39 kts | 43° |
| 2026-05-05 03:14 | 42.94446 | -78.72230 | 729 ft | 33 kts | 44° |
| 2026-05-05 03:15 | 42.94597 | -78.72027 | 733 ft | 28 kts | 44° |
| 2026-05-05 03:15 | 42.94722 | -78.71863 | 737 ft | 22 kts | 44° |
| 2026-05-05 03:15 | 42.94802 | -78.71815 | 739 ft | 0 kts | 336° |
| 2026-05-05 03:19 | 42.94811 | -78.71821 | 739 ft | 6 kts | 336° |
| 2026-05-05 03:20 | 42.94844 | -78.71876 | 739 ft | 8 kts | 299° |
| 2026-05-05 03:20 | 42.94838 | -78.71922 | 738 ft | 4 kts | 224° |
| 2026-05-05 03:20 | 42.94833 | -78.71929 | 738 ft | 0 kts | 224° |
| 2026-05-05 03:21 | 42.94822 | -78.71944 | 737 ft | 16 kts | 224° |
| 2026-05-05 03:21 | 42.94598 | -78.72235 | 731 ft | 72 kts | 223° |
| 2026-05-05 03:21 | 42.94117 | -78.72876 | 717 ft | 118 kts | 223° |
| 2026-05-05 03:22 | 42.93483 | -78.73723 | 852 ft | 135 kts | 223° |
| 2026-05-05 03:22 | 42.92774 | -78.74668 | 1099 ft | 149 kts | 222° |
| 2026-05-05 03:22 | 42.91976 | -78.75700 | 1289 ft | 168 kts | 222° |
| 2026-05-05 03:22 | 42.91125 | -78.76796 | 1639 ft | 168 kts | 223° |
| 2026-05-05 03:23 | 42.90300 | -78.77895 | 2040 ft | 166 kts | 224° |
| 2026-05-05 03:23 | 42.89480 | -78.78988 | 2324 ft | 163 kts | 225° |
| 2026-05-05 03:23 | 42.88664 | -78.80031 | 2645 ft | 159 kts | 224° |
| 2026-05-05 03:23 | 42.87861 | -78.81050 | 2918 ft | 157 kts | 225° |
| 2026-05-05 03:24 | 42.87040 | -78.82015 | 3163 ft | 157 kts | 216° |